• Join FlightAware (Why Join?)
  • Login
  • US Flag 
08:01PM EST


 

Airport Tracker/Info


-or-


 

Live Flight TrackerFlight Track Log ✈ UAL1169 ✈ 11-Jul-2013 ✈ KIAH - KLAX

Flight Track Log - Related Links

Times and Time Zones

All times are in EDT time to prevent confusion due to time zone crossing. See the UAL1169 flight status page for this flight to view local times or setup timezone preferences in your user account.

Time Position Orientation Groundspeed Altitude Reporting Facility
EDT Latitude Longitude Course Direction KTS MPH feet Rate Location/Type
10:34AM 29.9506 -95.3378 276° West 187 215 1,000  Level Houston Center
10:35AM 29.9278 -95.3622 223° Southwest 188 216 2,400 1,860 Climbing Houston Center
10:35AM 29.9311 -95.3944 277° West 209 241 3,300 1,800 Climbing Houston Center
10:36AM 29.9469 -95.4719 283° West 241 277 5,200 2,160 Climbing Houston Center
10:37AM 30.0297 -95.7639 277° West  Level FlightAware Approximate
10:37AM 29.9644 -95.5600 283° West 273 314 7,800  Level Houston Center
10:38AM 30.0424 -95.9084 276° West  Level FlightAware Approximate
10:38AM 29.9842 -95.6517 284° West 293 337 10,400  Level Houston Center
10:39AM 30.0666 -96.0498 291° West  Level FlightAware Approximate
10:39AM 30.0061 -95.7533 284° West 318 366 11,500  Level Houston Center
10:40AM 30.0798 -96.1943 276° West  Level FlightAware Approximate
10:40AM 30.0364 -95.8969 284° West 381 438 13,700  Level Houston Center
10:42AM 30.0619 -96.0228 283° West 404 465 15,700 1,860 Climbing Houston Center
10:43AM 30.0853 -96.1506 282° West 410 472 17,600 1,620 Climbing Houston Center
10:44AM 30.1047 -96.2850 280° West 425 489 19,100 1,620 Climbing Houston Center
10:45AM 30.1286 -96.4442 280° West 439 505 21,000 1,620 Climbing Houston Center
10:46AM 30.1511 -96.5889 280° West 449 517 22,500 1,380 Climbing Houston Center
10:47AM 30.1733 -96.7372 280° West 460 529 23,900 1,200 Climbing Houston Center
10:48AM 30.1953 -96.8883 280° West 468 539 25,100 1,200 Climbing Houston Center
10:49AM 30.2192 -97.0444 280° West 481 554 26,400 1,140 Climbing Houston Center
10:50AM 30.2425 -97.2042 280° West 493 567 27,500 1,140 Climbing Houston Center
10:51AM 30.2656 -97.3664 279° West 502 578 28,800 780 Climbing Houston Center
10:52AM 30.2892 -97.5292 280° West 505 581 29,200 540 Climbing Houston Center
10:53AM 30.3172 -97.7206 280° West 509 586 30,000 360 Climbing Houston Center
10:54AM 30.3406 -97.8861 279° West 513 590 30,000  Level Houston Center
10:55AM 30.3350 -98.0506 268° West 509 586 30,000  Level Houston Center
10:56AM 30.3239 -98.2153 266° West 508 585 30,000 240 Level Houston Center
10:57AM 30.3281 -98.3786 272° West 506 582 30,600 840 Climbing Houston Center
10:58AM 30.3514 -98.5425 279° West 510 587 31,800 660 Climbing Houston Center
10:59AM 30.3744 -98.7067 279° West 511 588 32,000 480 Climbing Houston Center
11:00AM 30.3989 -98.8719 280° West 515 593 32,900 960 Climbing Houston Center
11:01AM 30.4219 -99.0331 279° West 527 606 34,000 480 Climbing Houston Center
11:02AM 30.4517 -99.2258 280° West 510 587 33,900  Descending Houston Center
11:03AM 30.4750 -99.3850 280° West 504 580 34,000  Climbing Houston Center
11:04AM 30.5147 -99.5403 287° West 514 592 34,000  Level Houston Center
11:05AM 30.5478 -99.6933 284° West 503 579 34,000  Level Houston Center
11:06AM 30.5839 -99.8500 285° West 508 585 34,000  Level Houston Center
11:07AM 30.6289 -100.0367 286° West 507 583 34,000  Level Houston Center
11:08AM 30.6672 -100.1922 286° West 506 582 34,000  Level Houston Center
11:09AM 30.7044 -100.3461 286° West 502 578 34,000  Level Houston Center
11:10AM 30.7411 -100.4989 286° West 498 573 34,000  Level Houston Center
11:11AM 30.7767 -100.6517 285° West 495 570 34,000  Level Houston Center
11:13AM 30.8206 -100.8331 286° West 491 565 34,000  Level Houston Center
11:14AM 30.8553 -100.9858 285° West 492 566 34,000  Level Houston Center
11:15AM 30.8914 -101.1361 286° West 487 560 34,000  Level Houston Center
11:16AM 30.9250 -101.2881 284° West 488 562 34,000  Level Houston Center
11:17AM 30.9567 -101.4511 283° West 491 565 34,000  Level Houston Center
11:18AM 30.9917 -101.6031 285° West 488 562 34,000  Level Houston Center
11:19AM 31.0250 -101.7556 284° West 483 556 34,000  Level Houston Center
11:20AM 31.0683 -101.9350 286° West 484 557 34,000  Level Houston Center
11:21AM 31.1006 -102.0886 284° West 480 552 34,000  Level Houston Center
11:22AM 31.1322 -102.2422 284° West 474 545 34,000  Level Houston Center
11:23AM 31.1658 -102.4022 284° West 505 581 34,000  Level Houston Center
11:24AM 31.2017 -102.5575 285° West 493 567 34,000  Level Houston Center
11:25AM 31.2361 -102.7089 285° West 483 556 34,000  Level Houston Center
11:26AM 31.2694 -102.8625 284° West 484 557 34,000  Level Houston Center
11:27AM 31.3022 -103.0169 284° West 487 560 34,000  Level Houston Center
11:28AM 31.3417 -103.2028 284° West 490 564 34,000  Level Houston Center
11:29AM 31.3764 -103.3578 285° West 491 565 34,000  Level Houston Center
11:30AM 31.4128 -103.5442 283° West 494 568 34,000  Level Albuquerque Center
11:31AM 31.4525 -103.7303 284° West 493 567 34,000  Level Albuquerque Center
11:32AM 31.4819 -103.8800 283° West 492 566 34,000  Level Albuquerque Center
11:34AM 31.5158 -104.0358 284° West 495 570 34,000  Level Albuquerque Center
11:35AM 31.5475 -104.1911 283° West 495 570 34,000 -60 Level Albuquerque Center
11:36AM 31.5797 -104.3475 284° West 496 571 33,900 180 Descending Albuquerque Center
11:37AM 31.6172 -104.5364 283° West 498 573 34,400 840 Climbing Albuquerque Center
11:38AM 31.6481 -104.6894 283° West 491 565 35,700 720 Climbing Albuquerque Center
11:39AM 31.6792 -104.8442 283° West 490 564 36,000 120 Climbing Albuquerque Center
11:40AM 31.7078 -104.9989 282° West 489 563 36,000 -60 Level Albuquerque Center
11:41AM 31.7281 -105.1550 279° West 488 562 35,900  Descending Albuquerque Center
11:42AM 31.7558 -105.3414 280° West 488 562 36,000  Climbing Albuquerque Center
11:43AM 31.7789 -105.4967 280° West 485 558 36,000  Level Albuquerque Center
11:44AM 31.8008 -105.6525 279° West 485 558 36,000 -60 Level Albuquerque Center
11:45AM 31.8236 -105.8103 280° West 490 564 35,900  Descending Albuquerque Center
11:46AM 31.8467 -105.9664 280° West 488 562 36,000  Climbing Albuquerque Center
11:47AM 31.8689 -106.1228 280° West 487 560 35,900  Descending Albuquerque Center
11:48AM 31.8986 -106.3122 281° West 493 567 36,000  Climbing Albuquerque Center
11:49AM 31.9178 -106.4797 278° West 509 586 36,000 -60 Level Albuquerque Center
11:50AM 31.9403 -106.6372 280° West 490 564 35,900  Descending Albuquerque Center
11:51AM 31.9625 -106.7967 279° West 493 567 36,000  Climbing Albuquerque Center
11:52AM 31.9833 -106.9575 279° West 494 568 36,000  Level Albuquerque Center
11:53AM 32.0044 -107.1197 279° West 497 572 36,000 -60 Level Albuquerque Center
11:54AM 32.0256 -107.2808 279° West 495 570 35,900  Descending Albuquerque Center
11:55AM 32.0469 -107.4417 279° West 495 570 36,000  Climbing Albuquerque Center
11:56AM 32.0711 -107.6344 278° West 494 568 36,000  Level Albuquerque Center
11:57AM 32.0919 -107.7950 279° West 493 567 36,000  Level Albuquerque Center
11:58AM 32.1108 -107.9539 278° West 490 564 36,000  Level Albuquerque Center
11:59AM 32.1314 -108.1114 279° West 487 560 36,000 -60 Level Albuquerque Center
12:00PM 32.1497 -108.2669 278° West 480 552 35,900  Descending Albuquerque Center
12:01PM 32.1678 -108.4228 278° West 480 552 36,000  Climbing Albuquerque Center
12:02PM 32.1911 -108.6092 278° West 479 551 36,000  Level Albuquerque Center
12:03PM 32.2092 -108.7658 278° West 481 554 36,000  Level Albuquerque Center
12:05PM 32.2325 -108.9222 280° West 482 555 36,000  Level Albuquerque Center
12:06PM 32.2494 -109.0789 277° West 481 554 36,000  Level Albuquerque Center
12:07PM 32.2689 -109.2367 278° West 484 557 36,000  Level Albuquerque Center
12:08PM 32.3119 -109.3867 289° West 480 552 36,000  Level Albuquerque Center
12:09PM 32.3658 -109.5353 293° West 487 560 36,000  Level Albuquerque Center
12:10PM 32.4281 -109.7125 293° West 488 562 36,000  Level Albuquerque Center
12:11PM 32.4761 -109.8492 293° West 489 563 36,000  Level Albuquerque Center
12:12PM 32.5269 -109.9978 292° West 489 563 36,000  Level Albuquerque Center
12:13PM 32.6189 -110.2672 292° West 490 564 36,000  Level Los Angeles Center
12:14PM 32.6697 -110.4142 292° West 486 559 36,000  Level Los Angeles Center
12:15PM 32.7192 -110.5628 292° West 484 557 36,000  Level Los Angeles Center
12:17PM 32.7681 -110.7108 291° West 483 556 36,000  Level Los Angeles Center
12:18PM 32.8183 -110.8572 292° West 479 551 36,000  Level Los Angeles Center
12:19PM 32.8758 -111.0342 291° West 479 551 36,000  Level Los Angeles Center
12:20PM 32.9250 -111.1825 292° West 481 554 36,000  Level Los Angeles Center
12:21PM 32.9739 -111.3294 292° West 479 551 36,000  Level Los Angeles Center
12:22PM 33.0225 -111.4772 291° West 480 552 36,000  Level Los Angeles Center
12:23PM 33.0703 -111.6261 291° West 481 554 36,000  Level Los Angeles Center
12:24PM 33.1183 -111.7747 291° West 479 551 36,000  Level Los Angeles Center
12:25PM 33.1669 -111.9231 291° West 479 551 36,000  Level Los Angeles Center
12:26PM 33.2247 -112.1017 291° West 478 550 36,000  Level Los Angeles Center
12:27PM 33.2736 -112.2558 291° West 479 551 36,000  Level Los Angeles Center
12:28PM 33.3206 -112.4031 291° West 477 549 36,000 -60 Level Los Angeles Center
12:29PM 33.3678 -112.5486 291° West 475 547 35,900  Descending Los Angeles Center
12:30PM 33.4133 -112.6944 291° West 473 544 36,000  Climbing Los Angeles Center
12:31PM 33.4597 -112.8400 291° West 472 543 36,000  Level Los Angeles Center
12:32PM 33.5203 -113.0119 293° West 471 542 36,000 -60 Level Los Angeles Center
12:33PM 33.5719 -113.1528 294° West 469 540 35,900  Descending Los Angeles Center
12:34PM 33.6222 -113.2953 293° West 468 539 36,000  Climbing Los Angeles Center
12:35PM 33.6761 -113.4442 294° West 464 534 36,000  Level Los Angeles Center
12:36PM 33.7375 -113.6181 293° West 472 543 36,000 -60 Level Los Angeles Center
12:37PM 33.7869 -113.7586 293° West 464 534 35,900  Descending Los Angeles Center
12:38PM 33.8431 -113.9222 292° West 447 514 36,000  Climbing Los Angeles Center
12:40PM 33.8894 -114.0589 292° West 444 511 36,000  Level Los Angeles Center
12:41PM 33.9369 -114.1947 293° West 442 509 36,000  Level Los Angeles Center
12:42PM 33.9847 -114.3325 293° West 446 513 36,000  Level Los Angeles Center
12:43PM 34.0308 -114.4697 292° West 444 511 36,000  Level Los Angeles Center
12:44PM 34.0875 -114.6367 292° West 448 516 36,000 -60 Level Los Angeles Center
12:45PM 34.1094 -114.7503 283° West 440 506 35,900  Descending Los Angeles Center
12:46PM 34.1842 -114.9075 300° West 454 522 36,000 -420 Climbing Los Angeles Center
12:47PM 34.2572 -115.0333 305° West 459 528 35,100 -1,080 Descending Los Angeles Center
12:48PM 34.3264 -115.1622 303° West 460 529 33,800 -1,320 Descending Los Angeles Center
12:49PM 34.3972 -115.2906 304° West 459 528 32,400 -1,260 Descending Los Angeles Center
12:50PM 34.3903 -115.4583 267° West 430 495 31,300 -1,500 Descending Los Angeles Center
12:51PM 34.3561 -115.5881 252° West 411 473 29,400 -1,620 Descending Los Angeles Center
12:52PM 34.3208 -115.7247 253° West 424 488 28,000 -720 Descending Los Angeles Center
12:53PM 34.2858 -115.8589 253° West 423 487 28,000 -480 Level Los Angeles Center
12:54PM 34.2469 -116.0078 253° West 422 486 27,000 -480 Descending Los Angeles Center
12:55PM 34.2131 -116.1397 253° West 415 478 27,000  Level Los Angeles Center
12:56PM 34.1783 -116.2731 253° West 416 479 27,000 -300 Level Los Angeles Center
12:57PM 34.1419 -116.4086 252° West 423 487 26,400 -1,020 Descending Los Angeles Center
12:58PM 34.1061 -116.5478 253° West 407 468 25,000 -1,380 Descending Los Angeles Center
12:59PM 34.0731 -116.6689 252° West 385 443 23,600 -1,980 Descending Los Angeles Center
01:00PM 34.0367 -116.8064 252° West 362 417 21,000 -2,040 Descending Los Angeles Center
01:01PM 34.0069 -116.9164 252° West 351 404 19,500 -1,440 Descending Los Angeles Center
01:02PM 33.9775 -117.0261 252° West 347 399 18,100 -1,320 Descending Los Angeles Center
01:03PM 33.9500 -117.1333 253° West 340 391 16,900 -1,260 Descending Southern California TRACON
01:05PM 33.9333 -117.3500 265° West 319 367 14,500 -1,320 Descending Southern California TRACON
01:06PM 33.9500 -117.4500 281° West 309 356 13,200 -1,320 Descending Southern California TRACON
01:07PM 33.9833 -117.5333 296° West 297 342 11,900 -1,380 Descending Southern California TRACON
01:08PM 34.0167 -117.6333 292° West 354 407 10,500 -1,140 Descending Southern California TRACON
01:09PM 34.0000 -117.7333 259° West 263 303 9,700 -1,140 Descending Southern California TRACON
01:10PM 34.0000 -117.8000 270° West 237 273 8,400 -1,320 Descending Southern California TRACON
01:11PM 33.9833 -117.8833 256° West 245 282 7,300 -1,080 Descending Southern California TRACON
01:12PM 33.9833 -117.9667 270° West 223 257 6,300 -960 Descending Southern California TRACON
01:13PM 33.9667 -118.0333 253° West 204 235 5,400 -780 Descending Southern California TRACON
01:14PM 33.9667 -118.1000 270° West 203 234 4,800 -900 Descending Southern California TRACON
01:15PM 33.9608 -118.1539 263° West 202 232 3,800 -1,200 Descending Los Angeles Center